Latest Weather Observations for Giles*

IDD60801

Issued at 9:01 am CST Saturday 4 July 2015 (issued every 30 minutes, with the page automatically refreshed every 10 minutes)

About weather observations | Map of weather stations | Latest weather observations for NT | Other Formats
Station Details ID: 013017 Name: GILES METEOROLOGICAL OFFICE Lat: -25.03 Lon: 128.30 Height: 598.0 m
Data from the previous 72 hours. | See also: Recent months at Giles*

* Giles observations are collected in the South Australia time zone, which includes daylight saving in the summer period. Therefore, Rain since 9am value is with respect to South Australia local time.

Date/Time
CST
Temp
°C
App
Temp
°C
Dew
Point
Rel
Hum
%
Delta-T
°C
Wind Press
QNH
hPa
Press
MSL
hPa
Rain
since 9 am
mm
Dir
 
Spd
km/h
Gust
km/h
Spd
kts
Gust
kts
04/08:30am 7.1 3.7 -1.7 53 3.4 E 6 7 3 4 1023.7 1023.0 0.0
04/08:00am 5.3 1.0 -1.8 60 2.7 ESE 11 15 6 8 1023.3 1022.6 0.0
04/07:30am 5.2 0.4 -2.3 58 2.8 E 13 15 7 8 1023.0 1022.3 0.0
04/07:00am 5.2 0.4 -2.3 58 2.8 SE 13 17 7 9 1022.8 1022.1 0.0
04/05:30am 7.2 2.4 -2.5 50 3.7 E 13 15 7 8 1022.1 1021.4 0.0
04/05:00am 8.6 3.0 -2.9 44 4.4 E 17 19 9 10 1022.2 1021.5 0.0
04/04:30am 5.8 1.4 -2.2 56 3.0 SE 11 13 6 7 1022.5 1021.8 0.0
04/04:00am 8.7 3.5 -2.8 44 4.4 E 15 19 8 10 1022.4 1021.7 0.0
04/03:30am 7.2 2.1 -2.2 51 3.6 ESE 15 17 8 9 1022.7 1022.0 0.0
04/03:00am 7.5 3.4 -2.8 48 3.9 SE 9 11 5 6 1022.8 1022.1 0.0
04/02:30am 8.5 4.2 -2.0 47 4.1 ESE 11 13 6 7 1022.9 1022.2 0.0
04/02:00am 9.1 4.7 -2.5 44 4.5 ENE 11 13 6 7 1023.0 1022.3 0.0
04/01:30am 7.6 3.6 -2.3 49 3.8 ENE 9 11 5 6 1023.1 1022.4 0.0
04/01:00am 7.3 2.1 -2.4 50 3.7 S 15 17 8 9 1023.2 1022.5 0.0
04/12:30am 7.9 3.9 -2.6 47 4.0 SSW 9 13 5 7 1023.2 1022.5 0.0
04/12:00am 9.6 6.3 -1.4 46 4.4 ENE 6 9 3 5 1023.2 1022.5 0.0
 
Date/Time
CST
Temp
°C
App
Temp
°C
Dew
Point
Rel
Hum
%
Delta-T
°C
Wind Press
QNH
hPa
Press
MSL
hPa
Rain
since 9 am
mm
Dir
 
Spd
km/h
Gust
km/h
Spd
kts
Gust
kts
03/11:30pm 13.8 8.9 -3.1 31 6.8 E 13 15 7 8 1023.4 1022.7 0.0
03/11:00pm 12.6 8.1 -3.3 33 6.3 ENE 11 13 6 7 1023.4 1022.7 0.0
03/10:30pm 11.8 6.5 -3.2 35 5.9 E 15 17 8 9 1023.6 1022.9 0.0
03/10:00pm 10.6 5.8 -2.6 39 5.2 E 13 17 7 9 1023.5 1022.8 0.0
03/09:30pm 11.7 6.8 -3.4 34 5.9 ESE 13 15 7 8 1023.5 1022.8 0.0
03/09:00pm 13.3 8.0 -4.0 30 6.8 E 15 17 8 9 1023.3 1022.6 0.0
03/08:30pm 12.8 8.3 -3.4 32 6.4 SE 11 13 6 7 1023.2 1022.5 0.0
03/08:00pm 14.1 9.6 -3.3 30 7.0 SE 11 13 6 7 1023.0 1022.3 0.0
03/07:30pm 14.9 9.9 -4.7 25 7.7 ESE 13 15 7 8 1022.7 1022.0 0.0
03/07:00pm 15.3 11.2 -3.4 27 7.6 SSE 9 11 5 6 1022.3 1021.6 0.0
03/06:30pm 16.4 11.8 -4.5 23 8.4 S 11 13 6 7 1021.9 1021.2 0.0
03/05:30pm 19.2 14.1 -5.5 18 10.0 SSE 13 19 7 10 1021.7 1021.0 0.0
03/05:00pm 19.6 14.5 -5.5 18 10.2 SE 13 20 7 11 1021.6 1020.9 0.0
03/04:30pm 19.5 15.1 -6.3 17 10.3 S 9 17 5 9 1021.5 1020.8 0.0
03/04:00pm 19.7 15.8 -4.8 18 10.1 SSW 7 15 4 8 1021.8 1021.1 0.0
03/03:30pm 19.6 14.9 -5.0 18 10.1 SE 11 15 6 8 1022.0 1021.3 0.0
03/03:00pm 19.3 14.1 -5.8 18 10.1 S 13 20 7 11 1022.2 1021.5 0.0
03/02:30pm 19.5 15.7 -5.8 17 10.2 SSE 6 20 3 11 1022.4 1021.7 0.0
03/02:00pm 19.0 14.3 -4.6 20 9.7 ESE 11 19 6 10 1023.0 1022.3 0.0
03/01:30pm 18.8 14.6 -4.2 20 9.5 SE 9 15 5 8 1023.6 1022.9 0.0
03/01:00pm 18.5 14.4 -3.1 23 9.1 ESE 9 17 5 9 1024.2 1023.6 0.0
03/12:30pm 18.6 14.8 -3.8 21 9.3 S 7 13 4 7 1024.9 1024.2 0.0
03/12:00pm 17.8 13.6 -3.8 22 8.9 N 9 13 5 7 1025.3 1024.6 0.0
03/11:30am 17.5 13.3 -4.0 23 8.8 N 9 13 5 7 1025.7 1025.1 0.0
03/11:00am 16.4 12.3 -3.3 25 8.1 N 9 13 5 7 1026.0 1025.4 0.0
03/10:30am 16.1 11.6 -3.1 26 7.9 ENE 11 15 6 8 1026.2 1025.5 0.0
03/10:00am 14.8 10.4 -2.8 29 7.2 E 11 15 6 8 1026.2 1025.5 0.0
03/09:30am 13.3 9.2 -2.9 32 6.5 E 9 15 5 8 1026.0 1025.4 0.0
03/09:00am 11.6 7.6 -2.1 38 5.5 E 9 13 5 7 1025.9 1025.3 0.0
03/08:30am 9.7 5.4 -1.6 45 4.5 E 11 15 6 8 1025.8 1025.2 0.0
03/08:00am 7.3 2.3 -1.4 54 3.4 ESE 15 17 8 9 1025.4 1024.7 0.0
03/07:30am 6.2 1.6 -1.0 60 2.8 ESE 13 17 7 9 1025.3 1024.6 0.0
03/07:00am 6.2 1.6 -0.7 61 2.7 ESE 13 15 7 8 1025.1 1024.4 0.0
03/06:30am 6.5 2.0 -0.6 60 2.8 ESE 13 15 7 8 1024.9 1024.2 0.0
03/06:00am 7.3 3.1 -0.8 56 3.2 ESE 11 13 6 7 1024.8 1024.1 0.0
03/05:30am 7.6 4.2 -0.4 57 3.2 SSE 7 9 4 5 1024.8 1024.1 0.0
03/05:00am 9.3 6.1 -0.5 50 4.0 NNW 6 7 3 4 1024.8 1024.1 0.0
03/04:30am 9.9 6.8 0.3 51 4.0 E 6 7 3 4 1024.9 1024.2 0.0
03/04:00am 10.8 7.0 -0.6 45 4.7 ENE 9 11 5 6 1024.9 1024.2 0.0
03/03:30am 11.9 7.7 -0.9 41 5.3 NE 11 15 6 8 1025.0 1024.3 0.0
03/03:00am 11.3 7.6 -0.2 45 4.8 ENE 9 13 5 7 1025.0 1024.3 0.0
03/02:30am 8.8 5.1 -0.3 53 3.7 ESE 9 11 5 6 1025.3 1024.6 0.0
03/02:00am 12.1 7.6 -0.2 42 5.2 ENE 13 15 7 8 1025.5 1024.9 0.0
03/01:30am 11.1 6.6 -0.5 44 4.8 ENE 13 15 7 8 1025.5 1024.9 0.0
03/01:00am 8.6 5.4 -0.3 53 3.6 ESE 6 11 3 6 1025.5 1024.9 0.0
03/12:30am 10.7 6.5 -0.7 45 4.7 ESE 11 13 6 7 1025.8 1025.2 0.0
03/12:00am 12.1 7.1 -1.3 39 5.5 E 15 19 8 10 1025.8 1025.2 0.0
 
Date/Time
CST
Temp
°C
App
Temp
°C
Dew
Point
Rel
Hum
%
Delta-T
°C
Wind Press
QNH
hPa
Press
MSL
hPa
Rain
since 9 am
mm
Dir
 
Spd
km/h
Gust
km/h
Spd
kts
Gust
kts
02/11:30pm 11.5 6.9 -1.2 41 5.2 ESE 13 15 7 8 1025.9 1025.3 0.0
02/11:00pm 13.1 8.0 -1.7 36 6.1 E 15 17 8 9 1026.0 1025.4 0.0
02/10:30pm 13.4 8.3 -1.6 35 6.2 E 15 17 8 9 1025.9 1025.3 0.0
02/10:00pm 12.7 7.9 -2.4 35 6.1 E 13 15 7 8 1025.8 1025.2 0.0
02/09:30pm 13.6 8.8 -2.7 32 6.6 E 13 15 7 8 1025.7 1025.1 0.0
02/09:00pm 14.3 9.4 -3.0 30 7.0 E 13 15 7 8 1025.5 1024.9 0.0
02/08:30pm 13.8 9.1 -2.0 33 6.5 E 13 17 7 9 1025.3 1024.6 0.0
02/08:00pm 16.4 11.4 -4.2 24 8.3 ENE 13 15 7 8 1025.1 1024.4 0.0
02/07:30pm 15.8 11.3 -3.3 26 7.8 E 11 11 6 6 1024.8 1024.1 0.0
02/07:00pm 16.8 12.2 -4.2 23 8.5 ESE 11 11 6 6 1024.6 1023.9 0.0
02/06:30pm 17.8 13.6 -3.8 22 8.9 E 9 11 5 6 1024.5 1023.8 0.0
02/06:00pm 19.5 15.2 -4.9 19 10.0 ESE 9 11 5 6 1024.5 1023.8 0.0
02/05:30pm 20.4 16.0 -6.1 16 10.7 ESE 9 13 5 7 1024.5 1023.8 0.0
02/05:00pm 20.5 16.2 -5.3 17 10.6 ESE 9 15 5 8 1024.6 1023.9 0.0
02/04:30pm 21.2 18.3 -4.5 17 10.8 E 2 13 1 7 1024.7 1024.0 0.0
02/04:00pm 20.7 15.9 -6.3 15 10.9 ESE 11 20 6 11 1024.9 1024.2 0.0
02/03:30pm 20.8 16.8 -5.6 16 10.8 E 7 13 4 7 1025.2 1024.5 0.0
02/03:00pm 20.9 15.5 -4.8 17 10.7 ESE 15 20 8 11 1025.3 1024.6 0.0
02/02:30pm 20.2 15.6 -3.7 19 10.1 E 11 17 6 9 1025.6 1025.0 0.0
02/02:00pm 20.7 17.3 -0.9 23 9.7 N 7 11 4 6 1026.0 1025.4 0.0
02/01:30pm 19.7 16.8 -1.0 25 9.2 E 4 7 2 4 1026.6 1025.9 0.0
02/01:00pm 19.6 15.2 -2.1 23 9.5 NE 11 19 6 10 1027.2 1026.6 0.0
02/12:30pm 19.2 15.9 -0.2 27 8.7 NE 7 13 4 7 1027.8 1027.2 0.0
02/12:00pm 18.7 15.4 0.3 29 8.3 NE 7 15 4 8 1028.3 1027.6 0.0
02/11:30am 17.6 14.1 1.1 33 7.5 NNE 9 19 5 10 1028.6 1028.0 0.0
02/11:00am 17.3 12.9 0.6 32 7.5 NE 13 19 7 10 1028.8 1028.2 0.0
02/10:30am 16.6 11.9 1.1 35 7.0 NE 15 20 8 11 1028.9 1028.3 0.0
02/10:00am 16.1 10.6 0.9 35 6.8 ENE 19 28 10 15 1028.8 1028.2 0.0
02/09:30am 15.6 11.7 1.0 37 6.5 ENE 11 19 6 10 1028.7 1028.1 0.0
02/09:00am 14.2 10.7 1.4 42 5.7 ENE 9 11 5 6 1028.6 1028.0 0.0
02/08:30am 11.2 7.4 1.5 51 4.2 E 11 13 6 7 1028.4 1027.7 0.0
02/08:00am 10.9 6.7 1.4 52 4.1 ENE 13 15 7 8 1027.8 1027.2 0.0
02/07:30am 8.3 4.8 1.1 60 3.0 E 9 13 5 7 1027.6 1027.0 0.0
02/07:00am 11.3 6.6 1.1 49 4.4 ENE 15 17 8 9 1027.3 1026.7 0.0
02/06:30am 9.1 4.4 1.0 57 3.4 E 15 17 8 9 1027.1 1026.5 0.0
02/06:00am 8.7 4.0 1.1 59 3.2 E 15 17 8 9 1026.6 1025.9 0.0
02/05:30am 10.6 5.5 0.7 50 4.2 E 17 19 9 10 1026.5 1025.8 0.0
02/05:00am 10.8 6.1 0.7 49 4.3 E 15 19 8 10 1026.4 1025.7 0.0
02/04:30am 9.7 5.0 0.9 54 3.7 E 15 20 8 11 1026.5 1025.8 0.0
02/04:00am 8.7 4.0 1.1 59 3.2 ESE 15 17 8 9 1026.6 1025.9 0.0
02/03:30am 9.7 4.6 0.9 54 3.7 ESE 17 19 9 10 1026.7 1026.0 0.0
02/03:00am 9.1 4.4 1.0 57 3.4 ESE 15 17 8 9 1026.9 1026.2 0.0
02/02:30am 9.2 4.5 1.2 57 3.4 ESE 15 17 8 9 1027.1 1026.5 0.0
02/02:00am 10.0 5.4 1.3 54 3.7 ESE 15 17 8 9 1027.2 1026.6 0.0
02/01:30am 11.2 6.5 0.9 49 4.4 ESE 15 17 8 9 1027.4 1026.8 0.0
02/01:00am 12.6 7.9 0.8 44 5.1 E 15 19 8 10 1027.3 1026.7 0.0
02/12:30am 13.9 8.4 0.3 39 5.9 E 19 22 10 12 1027.5 1026.9 0.0
02/12:00am 14.3 8.8 0.6 39 6.0 ENE 19 22 10 12 1027.6 1027.0 0.0
 
Date/Time
CST
Temp
°C
App
Temp
°C
Dew
Point
Rel
Hum
%
Delta-T
°C
Wind Press
QNH
hPa
Press
MSL
hPa
Rain
since 9 am
mm
Dir
 
Spd
km/h
Gust
km/h
Spd
kts
Gust
kts
01/11:30pm 13.0 8.8 1.4 45 5.1 E 13 17 7 9 1027.8 1027.2 0.0
01/11:00pm 12.9 8.3 1.6 46 5.0 ESE 15 19 8 10 1028.0 1027.3 0.0
01/10:30pm 12.2 8.5 2.3 51 4.4 ESE 11 15 6 8 1027.8 1027.2 0.0
01/10:00pm 13.1 9.0 2.2 47 4.9 E 13 15 7 8 1027.8 1027.2 0.0
01/09:30pm 14.1 9.5 1.5 42 5.6 SE 15 19 8 10 1027.6 1027.0 0.0
01/09:00pm 15.0 11.2 1.7 40 6.0 ESE 11 15 6 8 1027.3 1026.7 0.0
01/08:30pm 16.3 12.9 1.6 37 6.7 ESE 9 13 5 7 1027.0 1026.4 0.0
01/08:00pm 16.1 13.1 1.9 38 6.5 SE 7 9 4 5 1026.7 1026.0 0.0
01/07:30pm 16.0 12.6 1.7 38 6.5 SE 9 11 5 6 1026.3 1025.6 0.0
01/07:00pm 18.2 15.1 1.5 32 7.7 E 7 9 4 5 1025.8 1025.2 0.0
01/06:30pm 18.8 15.9 1.6 31 8.0 ESE 6 7 3 4 1025.7 1025.1 0.0
01/06:00pm 20.0 16.8 1.0 28 8.8 ESE 7 11 4 6 1025.6 1025.0 0.0
01/05:30pm 21.0 17.4 0.4 25 9.5 E 9 11 5 6 1025.5 1024.9 0.0
01/05:00pm 21.4 18.4 1.9 27 9.3 SSW 7 11 4 6 1025.4 1024.7 0.0
01/04:30pm 21.7 18.7 2.1 27 9.4 ESE 7 20 4 11 1025.4 1024.7 0.0
01/04:00pm 21.4 18.4 1.9 27 9.3 W 7 11 4 6 1025.4 1024.7 0.0
01/03:30pm 21.2 17.8 1.8 27 9.2 S 9 13 5 7 1025.8 1025.2 0.0
01/03:00pm 21.6 18.8 2.9 29 9.1 S 7 11 4 6 1025.9 1025.3 0.0
01/02:30pm 20.6 17.7 2.4 30 8.7 NW 7 13 4 7 1026.4 1025.7 0.0
01/02:00pm 20.6 17.0 2.7 30 8.7 SE 11 22 6 12 1026.7 1026.0 0.0
01/01:30pm 20.3 17.8 3.5 33 8.2 SSE 6 13 3 7 1027.3 1026.7 0.0
01/01:00pm 20.7 18.0 3.8 33 8.3 NNW 7 15 4 8 1028.1 1027.4 0.0
01/12:30pm 19.7 17.1 4.3 36 7.6 SW 7 13 4 7 1028.7 1028.1 0.0
01/12:00pm 19.4 16.9 3.8 35 7.6 NNE 6 13 3 7 1029.1 1028.5 0.0
01/11:30am 18.3 14.9 3.8 38 7.0 E 11 15 6 8 1029.5 1028.9 0.0
01/11:00am 17.8 14.1 4.2 40 6.6 E 13 20 7 11 1029.9 1029.3 0.0
01/10:30am 17.2 13.5 4.4 42 6.2 E 13 19 7 10 1030.0 1029.4 0.0
01/10:00am 16.3 12.6 4.2 44 5.8 ENE 13 17 7 9 1029.8 1029.1 0.0
01/09:30am 15.5 11.8 4.4 47 5.3 ENE 13 17 7 9 1029.5 1028.9 0.0

Other Formats:

Comma delimited format used in spreadsheet applications
http://www.bom.gov.au/fwo/IDD60801/IDD60801.94461.axf

JavaScript Object Notation format (JSON) in row-major order
http://www.bom.gov.au/fwo/IDD60801/IDD60801.94461.json